<?xml version="1.0" encoding="UTF-8" standalone="no" ?>
<gpx xmlns="http://www.topografix.com/GPX/1/1" xmlns:xsi="http://www.w3.org/2001/XMLSchema-instance" xsi:schemaLocation="http://www.topografix.com/GPX/1/1 http://www.topografix.com/GPX/1/1/gpx.xsd" version="1.1" creator="VisuGPX - https://www.visugpx.com">
  <metadata>
    <name>Grumeau - La Charvaz</name>
    <desc><![CDATA[Savoie.
Boucle au départ de Grumeau.
Passage à Communal, Les Ordières, sommet de La Charvaz,Le Mont, Ontex.]]></desc>
  </metadata>
  <trk>
    <name><![CDATA[11464752-Grumeau - La Charvaz]]></name>
    <extensions>
      <line xmlns="http://www.topografix.com/GPX/gpx_style/0/2">
        <color>0000FF</color>
        <width>4</width>
      </line>
    </extensions>
    <trkseg>
      <trkpt lat="45.74943" lon="5.83144">
        <ele>599</ele>
        <time>2020-06-12T07:23:53Z</time>
      </trkpt>
      <trkpt lat="45.74932" lon="5.83154">
        <ele>597</ele>
        <time>2020-06-12T07:24:10Z</time>
      </trkpt>
      <trkpt lat="45.74921" lon="5.83139">
        <ele>605</ele>
        <time>2020-06-12T07:24:31Z</time>
      </trkpt>
      <trkpt lat="45.74883" lon="5.83166">
        <ele>603</ele>
        <time>2020-06-12T07:25:27Z</time>
      </trkpt>
      <trkpt lat="45.74869" lon="5.83179">
        <ele>600</ele>
        <time>2020-06-12T07:25:50Z</time>
      </trkpt>
      <trkpt lat="45.74861" lon="5.8319">
        <ele>596</ele>
        <time>2020-06-12T07:26:04Z</time>
      </trkpt>
      <trkpt lat="45.74848" lon="5.832">
        <ele>595</ele>
        <time>2020-06-12T07:26:24Z</time>
      </trkpt>
      <trkpt lat="45.74802" lon="5.8322">
        <ele>595</ele>
        <time>2020-06-12T07:27:28Z</time>
      </trkpt>
      <trkpt lat="45.74756" lon="5.83244">
        <ele>597</ele>
        <time>2020-06-12T07:28:33Z</time>
      </trkpt>
      <trkpt lat="45.74754" lon="5.83254">
        <ele>594</ele>
        <time>2020-06-12T07:28:43Z</time>
      </trkpt>
      <trkpt lat="45.74739" lon="5.83271">
        <ele>585</ele>
        <time>2020-06-12T07:29:09Z</time>
      </trkpt>
      <trkpt lat="45.74688" lon="5.83287">
        <ele>574</ele>
        <time>2020-06-12T07:30:18Z</time>
      </trkpt>
      <trkpt lat="45.74678" lon="5.83299">
        <ele>570</ele>
        <time>2020-06-12T07:30:36Z</time>
      </trkpt>
      <trkpt lat="45.7468" lon="5.83309">
        <ele>567</ele>
        <time>2020-06-12T07:30:45Z</time>
      </trkpt>
      <trkpt lat="45.74656" lon="5.83326">
        <ele>561</ele>
        <time>2020-06-12T07:31:21Z</time>
      </trkpt>
      <trkpt lat="45.74648" lon="5.83325">
        <ele>560</ele>
        <time>2020-06-12T07:31:32Z</time>
      </trkpt>
      <trkpt lat="45.7464" lon="5.83334">
        <ele>557</ele>
        <time>2020-06-12T07:31:45Z</time>
      </trkpt>
      <trkpt lat="45.74639" lon="5.83346">
        <ele>554</ele>
        <time>2020-06-12T07:31:57Z</time>
      </trkpt>
      <trkpt lat="45.74644" lon="5.83349">
        <ele>554</ele>
        <time>2020-06-12T07:32:04Z</time>
      </trkpt>
      <trkpt lat="45.74642" lon="5.83358">
        <ele>551</ele>
        <time>2020-06-12T07:32:13Z</time>
      </trkpt>
      <trkpt lat="45.74628" lon="5.83368">
        <ele>549</ele>
        <time>2020-06-12T07:32:34Z</time>
      </trkpt>
      <trkpt lat="45.74624" lon="5.83375">
        <ele>548</ele>
        <time>2020-06-12T07:32:42Z</time>
      </trkpt>
      <trkpt lat="45.74618" lon="5.83379">
        <ele>547</ele>
        <time>2020-06-12T07:32:51Z</time>
      </trkpt>
      <trkpt lat="45.74608" lon="5.83378">
        <ele>547</ele>
        <time>2020-06-12T07:33:04Z</time>
      </trkpt>
      <trkpt lat="45.74601" lon="5.83384">
        <ele>547</ele>
        <time>2020-06-12T07:33:15Z</time>
      </trkpt>
      <trkpt lat="45.74593" lon="5.83387">
        <ele>547</ele>
        <time>2020-06-12T07:33:26Z</time>
      </trkpt>
      <trkpt lat="45.74584" lon="5.83386">
        <ele>547</ele>
        <time>2020-06-12T07:33:38Z</time>
      </trkpt>
      <trkpt lat="45.74575" lon="5.8339">
        <ele>548</ele>
        <time>2020-06-12T07:33:51Z</time>
      </trkpt>
      <trkpt lat="45.74546" lon="5.83411">
        <ele>549</ele>
        <time>2020-06-12T07:34:34Z</time>
      </trkpt>
      <trkpt lat="45.7454" lon="5.83412">
        <ele>550</ele>
        <time>2020-06-12T07:34:42Z</time>
      </trkpt>
      <trkpt lat="45.74528" lon="5.83397">
        <ele>552</ele>
        <time>2020-06-12T07:35:03Z</time>
      </trkpt>
      <trkpt lat="45.74484" lon="5.83361">
        <ele>558</ele>
        <time>2020-06-12T07:36:11Z</time>
      </trkpt>
      <trkpt lat="45.74474" lon="5.83356">
        <ele>560</ele>
        <time>2020-06-12T07:36:25Z</time>
      </trkpt>
      <trkpt lat="45.74437" lon="5.83353">
        <ele>565</ele>
        <time>2020-06-12T07:37:15Z</time>
      </trkpt>
      <trkpt lat="45.74416" lon="5.83357">
        <ele>567</ele>
        <time>2020-06-12T07:37:43Z</time>
      </trkpt>
      <trkpt lat="45.74406" lon="5.83363">
        <ele>569</ele>
        <time>2020-06-12T07:37:57Z</time>
      </trkpt>
      <trkpt lat="45.74373" lon="5.83397">
        <ele>570</ele>
        <time>2020-06-12T07:38:52Z</time>
      </trkpt>
      <trkpt lat="45.74361" lon="5.83412">
        <ele>570</ele>
        <time>2020-06-12T07:39:13Z</time>
      </trkpt>
      <trkpt lat="45.74343" lon="5.83444">
        <ele>568</ele>
        <time>2020-06-12T07:39:51Z</time>
      </trkpt>
      <trkpt lat="45.74337" lon="5.83448">
        <ele>568</ele>
        <time>2020-06-12T07:40:00Z</time>
      </trkpt>
      <trkpt lat="45.74328" lon="5.83446">
        <ele>571</ele>
        <time>2020-06-12T07:40:12Z</time>
      </trkpt>
      <trkpt lat="45.74343" lon="5.834">
        <ele>577</ele>
        <time>2020-06-12T07:40:59Z</time>
      </trkpt>
      <trkpt lat="45.74328" lon="5.83405">
        <ele>579</ele>
        <time>2020-06-12T07:41:20Z</time>
      </trkpt>
      <trkpt lat="45.74293" lon="5.8343">
        <ele>585</ele>
        <time>2020-06-12T07:42:12Z</time>
      </trkpt>
      <trkpt lat="45.74277" lon="5.83445">
        <ele>586</ele>
        <time>2020-06-12T07:42:38Z</time>
      </trkpt>
      <trkpt lat="45.74246" lon="5.83463">
        <ele>590</ele>
        <time>2020-06-12T07:43:22Z</time>
      </trkpt>
      <trkpt lat="45.7418" lon="5.83487">
        <ele>601</ele>
        <time>2020-06-12T07:44:53Z</time>
      </trkpt>
      <trkpt lat="45.74133" lon="5.83518">
        <ele>607</ele>
        <time>2020-06-12T07:46:02Z</time>
      </trkpt>
      <trkpt lat="45.7407" lon="5.83567">
        <ele>609</ele>
        <time>2020-06-12T07:47:38Z</time>
      </trkpt>
      <trkpt lat="45.73995" lon="5.83618">
        <ele>618</ele>
        <time>2020-06-12T07:49:29Z</time>
      </trkpt>
      <trkpt lat="45.73988" lon="5.83627">
        <ele>617</ele>
        <time>2020-06-12T07:49:41Z</time>
      </trkpt>
      <trkpt lat="45.73975" lon="5.83654">
        <ele>611</ele>
        <time>2020-06-12T07:50:12Z</time>
      </trkpt>
      <trkpt lat="45.73899" lon="5.83706">
        <ele>616</ele>
        <time>2020-06-12T07:52:04Z</time>
      </trkpt>
      <trkpt lat="45.7387" lon="5.83719">
        <ele>621</ele>
        <time>2020-06-12T07:52:45Z</time>
      </trkpt>
      <trkpt lat="45.73834" lon="5.83755">
        <ele>620</ele>
        <time>2020-06-12T07:53:43Z</time>
      </trkpt>
      <trkpt lat="45.73805" lon="5.83776">
        <ele>622</ele>
        <time>2020-06-12T07:54:27Z</time>
      </trkpt>
      <trkpt lat="45.73774" lon="5.83792">
        <ele>627</ele>
        <time>2020-06-12T07:55:11Z</time>
      </trkpt>
      <trkpt lat="45.73748" lon="5.83802">
        <ele>634</ele>
        <time>2020-06-12T07:55:47Z</time>
      </trkpt>
      <trkpt lat="45.7372" lon="5.83809">
        <ele>640</ele>
        <time>2020-06-12T07:56:24Z</time>
      </trkpt>
      <trkpt lat="45.73693" lon="5.83812">
        <ele>648</ele>
        <time>2020-06-12T07:57:01Z</time>
      </trkpt>
      <trkpt lat="45.73656" lon="5.83809">
        <ele>661</ele>
        <time>2020-06-12T07:57:50Z</time>
      </trkpt>
      <trkpt lat="45.73616" lon="5.8382">
        <ele>671</ele>
        <time>2020-06-12T07:58:44Z</time>
      </trkpt>
      <trkpt lat="45.73608" lon="5.83825">
        <ele>672</ele>
        <time>2020-06-12T07:58:56Z</time>
      </trkpt>
      <trkpt lat="45.73605" lon="5.83837">
        <ele>668</ele>
        <time>2020-06-12T07:59:08Z</time>
      </trkpt>
      <trkpt lat="45.73605" lon="5.83862">
        <ele>659</ele>
        <time>2020-06-12T07:59:31Z</time>
      </trkpt>
      <trkpt lat="45.73596" lon="5.83871">
        <ele>659</ele>
        <time>2020-06-12T07:59:46Z</time>
      </trkpt>
      <trkpt lat="45.73541" lon="5.83912">
        <ele>663</ele>
        <time>2020-06-12T08:01:09Z</time>
      </trkpt>
      <trkpt lat="45.7351" lon="5.8394">
        <ele>662</ele>
        <time>2020-06-12T08:01:58Z</time>
      </trkpt>
      <trkpt lat="45.73474" lon="5.83963">
        <ele>659</ele>
        <time>2020-06-12T08:02:50Z</time>
      </trkpt>
      <trkpt lat="45.73409" lon="5.8398">
        <ele>659</ele>
        <time>2020-06-12T08:04:18Z</time>
      </trkpt>
      <trkpt lat="45.73399" lon="5.83979">
        <ele>659</ele>
        <time>2020-06-12T08:04:32Z</time>
      </trkpt>
      <trkpt lat="45.7339" lon="5.83965">
        <ele>662</ele>
        <time>2020-06-12T08:04:49Z</time>
      </trkpt>
      <trkpt lat="45.73392" lon="5.83941">
        <ele>668</ele>
        <time>2020-06-12T08:05:12Z</time>
      </trkpt>
      <trkpt lat="45.73398" lon="5.83917">
        <ele>673</ele>
        <time>2020-06-12T08:05:36Z</time>
      </trkpt>
      <trkpt lat="45.73389" lon="5.83902">
        <ele>677</ele>
        <time>2020-06-12T08:05:54Z</time>
      </trkpt>
      <trkpt lat="45.73397" lon="5.83902">
        <ele>677</ele>
        <time>2020-06-12T08:06:05Z</time>
      </trkpt>
      <trkpt lat="45.73416" lon="5.83923">
        <ele>673</ele>
        <time>2020-06-12T08:06:37Z</time>
      </trkpt>
      <trkpt lat="45.7343" lon="5.83931">
        <ele>671</ele>
        <time>2020-06-12T08:06:57Z</time>
      </trkpt>
      <trkpt lat="45.73436" lon="5.8393">
        <ele>671</ele>
        <time>2020-06-12T08:07:05Z</time>
      </trkpt>
      <trkpt lat="45.73442" lon="5.83923">
        <ele>673</ele>
        <time>2020-06-12T08:07:15Z</time>
      </trkpt>
      <trkpt lat="45.73444" lon="5.83897">
        <ele>680</ele>
        <time>2020-06-12T08:07:40Z</time>
      </trkpt>
      <trkpt lat="45.73452" lon="5.83888">
        <ele>682</ele>
        <time>2020-06-12T08:07:53Z</time>
      </trkpt>
      <trkpt lat="45.73464" lon="5.83858">
        <ele>691</ele>
        <time>2020-06-12T08:08:25Z</time>
      </trkpt>
      <trkpt lat="45.73466" lon="5.83835">
        <ele>698</ele>
        <time>2020-06-12T08:08:47Z</time>
      </trkpt>
      <trkpt lat="45.73462" lon="5.83811">
        <ele>705</ele>
        <time>2020-06-12T08:09:10Z</time>
      </trkpt>
      <trkpt lat="45.73456" lon="5.838">
        <ele>708</ele>
        <time>2020-06-12T08:09:23Z</time>
      </trkpt>
      <trkpt lat="45.73447" lon="5.83792">
        <ele>709</ele>
        <time>2020-06-12T08:09:37Z</time>
      </trkpt>
      <trkpt lat="45.73404" lon="5.83784">
        <ele>710</ele>
        <time>2020-06-12T08:10:35Z</time>
      </trkpt>
      <trkpt lat="45.73398" lon="5.83777">
        <ele>712</ele>
        <time>2020-06-12T08:10:45Z</time>
      </trkpt>
      <trkpt lat="45.73397" lon="5.83769">
        <ele>715</ele>
        <time>2020-06-12T08:10:53Z</time>
      </trkpt>
      <trkpt lat="45.73403" lon="5.83762">
        <ele>717</ele>
        <time>2020-06-12T08:11:03Z</time>
      </trkpt>
      <trkpt lat="45.73423" lon="5.83751">
        <ele>721</ele>
        <time>2020-06-12T08:11:32Z</time>
      </trkpt>
      <trkpt lat="45.73437" lon="5.8373">
        <ele>727</ele>
        <time>2020-06-12T08:11:59Z</time>
      </trkpt>
      <trkpt lat="45.73449" lon="5.83718">
        <ele>731</ele>
        <time>2020-06-12T08:12:18Z</time>
      </trkpt>
      <trkpt lat="45.7351" lon="5.8363">
        <ele>754</ele>
        <time>2020-06-12T08:14:14Z</time>
      </trkpt>
      <trkpt lat="45.73551" lon="5.83584">
        <ele>766</ele>
        <time>2020-06-12T08:15:23Z</time>
      </trkpt>
      <trkpt lat="45.73564" lon="5.83565">
        <ele>771</ele>
        <time>2020-06-12T08:15:48Z</time>
      </trkpt>
      <trkpt lat="45.73582" lon="5.83519">
        <ele>780</ele>
        <time>2020-06-12T08:16:37Z</time>
      </trkpt>
      <trkpt lat="45.73598" lon="5.8349">
        <ele>784</ele>
        <time>2020-06-12T08:17:12Z</time>
      </trkpt>
      <trkpt lat="45.73632" lon="5.83464">
        <ele>785</ele>
        <time>2020-06-12T08:18:03Z</time>
      </trkpt>
      <trkpt lat="45.73643" lon="5.8345">
        <ele>785</ele>
        <time>2020-06-12T08:18:23Z</time>
      </trkpt>
      <trkpt lat="45.73667" lon="5.83408">
        <ele>786</ele>
        <time>2020-06-12T08:19:13Z</time>
      </trkpt>
      <trkpt lat="45.7367" lon="5.83346">
        <ele>788</ele>
        <time>2020-06-12T08:20:11Z</time>
      </trkpt>
      <trkpt lat="45.73689" lon="5.83319">
        <ele>788</ele>
        <time>2020-06-12T08:20:47Z</time>
      </trkpt>
      <trkpt lat="45.73698" lon="5.83316">
        <ele>787</ele>
        <time>2020-06-12T08:20:59Z</time>
      </trkpt>
      <trkpt lat="45.7372" lon="5.83292">
        <ele>787</ele>
        <time>2020-06-12T08:21:36Z</time>
      </trkpt>
      <trkpt lat="45.7374" lon="5.83292">
        <ele>782</ele>
        <time>2020-06-12T08:22:03Z</time>
      </trkpt>
      <trkpt lat="45.73749" lon="5.83279">
        <ele>782</ele>
        <time>2020-06-12T08:22:20Z</time>
      </trkpt>
      <trkpt lat="45.73767" lon="5.83275">
        <ele>781</ele>
        <time>2020-06-12T08:22:44Z</time>
      </trkpt>
      <trkpt lat="45.73779" lon="5.83259">
        <ele>782</ele>
        <time>2020-06-12T08:23:06Z</time>
      </trkpt>
      <trkpt lat="45.73801" lon="5.83252">
        <ele>781</ele>
        <time>2020-06-12T08:23:36Z</time>
      </trkpt>
      <trkpt lat="45.73818" lon="5.83233">
        <ele>782</ele>
        <time>2020-06-12T08:24:05Z</time>
      </trkpt>
      <trkpt lat="45.7383" lon="5.83191">
        <ele>786</ele>
        <time>2020-06-12T08:24:47Z</time>
      </trkpt>
      <trkpt lat="45.73837" lon="5.83185">
        <ele>786</ele>
        <time>2020-06-12T08:24:58Z</time>
      </trkpt>
      <trkpt lat="45.73876" lon="5.83127">
        <ele>790</ele>
        <time>2020-06-12T08:26:13Z</time>
      </trkpt>
      <trkpt lat="45.73911" lon="5.83098">
        <ele>788</ele>
        <time>2020-06-12T08:27:07Z</time>
      </trkpt>
      <trkpt lat="45.73961" lon="5.8303">
        <ele>791</ele>
        <time>2020-06-12T08:28:39Z</time>
      </trkpt>
      <trkpt lat="45.7399" lon="5.82999">
        <ele>790</ele>
        <time>2020-06-12T08:29:27Z</time>
      </trkpt>
      <trkpt lat="45.74029" lon="5.82971">
        <ele>787</ele>
        <time>2020-06-12T08:30:26Z</time>
      </trkpt>
      <trkpt lat="45.74042" lon="5.82958">
        <ele>786</ele>
        <time>2020-06-12T08:30:47Z</time>
      </trkpt>
      <trkpt lat="45.73996" lon="5.82948">
        <ele>797</ele>
        <time>2020-06-12T08:31:49Z</time>
      </trkpt>
      <trkpt lat="45.73969" lon="5.82939">
        <ele>804</ele>
        <time>2020-06-12T08:32:26Z</time>
      </trkpt>
      <trkpt lat="45.7395" lon="5.82954">
        <ele>806</ele>
        <time>2020-06-12T08:32:55Z</time>
      </trkpt>
      <trkpt lat="45.73934" lon="5.82983">
        <ele>803</ele>
        <time>2020-06-12T08:33:29Z</time>
      </trkpt>
      <trkpt lat="45.73909" lon="5.82996">
        <ele>805</ele>
        <time>2020-06-12T08:34:05Z</time>
      </trkpt>
      <trkpt lat="45.73893" lon="5.82999">
        <ele>810</ele>
        <time>2020-06-12T08:34:26Z</time>
      </trkpt>
      <trkpt lat="45.73877" lon="5.82994">
        <ele>816</ele>
        <time>2020-06-12T08:34:48Z</time>
      </trkpt>
      <trkpt lat="45.73868" lon="5.82987">
        <ele>821</ele>
        <time>2020-06-12T08:35:02Z</time>
      </trkpt>
      <trkpt lat="45.73874" lon="5.82965">
        <ele>823</ele>
        <time>2020-06-12T08:35:24Z</time>
      </trkpt>
      <trkpt lat="45.73876" lon="5.82922">
        <ele>832</ele>
        <time>2020-06-12T08:36:04Z</time>
      </trkpt>
      <trkpt lat="45.7385" lon="5.82922">
        <ele>840</ele>
        <time>2020-06-12T08:36:39Z</time>
      </trkpt>
      <trkpt lat="45.73832" lon="5.82943">
        <ele>841</ele>
        <time>2020-06-12T08:37:10Z</time>
      </trkpt>
      <trkpt lat="45.73825" lon="5.82945">
        <ele>843</ele>
        <time>2020-06-12T08:37:19Z</time>
      </trkpt>
      <trkpt lat="45.73828" lon="5.82898">
        <ele>851</ele>
        <time>2020-06-12T08:38:03Z</time>
      </trkpt>
      <trkpt lat="45.73849" lon="5.82849">
        <ele>855</ele>
        <time>2020-06-12T08:38:57Z</time>
      </trkpt>
      <trkpt lat="45.73864" lon="5.82797">
        <ele>861</ele>
        <time>2020-06-12T08:39:49Z</time>
      </trkpt>
      <trkpt lat="45.73852" lon="5.82779">
        <ele>867</ele>
        <time>2020-06-12T08:40:12Z</time>
      </trkpt>
      <trkpt lat="45.7385" lon="5.82765">
        <ele>870</ele>
        <time>2020-06-12T08:40:25Z</time>
      </trkpt>
      <trkpt lat="45.73854" lon="5.82751">
        <ele>872</ele>
        <time>2020-06-12T08:40:40Z</time>
      </trkpt>
      <trkpt lat="45.7389" lon="5.82668">
        <ele>881</ele>
        <time>2020-06-12T08:42:11Z</time>
      </trkpt>
      <trkpt lat="45.73893" lon="5.82654">
        <ele>884</ele>
        <time>2020-06-12T08:42:24Z</time>
      </trkpt>
      <trkpt lat="45.73892" lon="5.82641">
        <ele>886</ele>
        <time>2020-06-12T08:42:36Z</time>
      </trkpt>
      <trkpt lat="45.73876" lon="5.82641">
        <ele>890</ele>
        <time>2020-06-12T08:42:58Z</time>
      </trkpt>
      <trkpt lat="45.73861" lon="5.82666">
        <ele>888</ele>
        <time>2020-06-12T08:43:28Z</time>
      </trkpt>
      <trkpt lat="45.7385" lon="5.82668">
        <ele>890</ele>
        <time>2020-06-12T08:43:43Z</time>
      </trkpt>
      <trkpt lat="45.73842" lon="5.82665">
        <ele>892</ele>
        <time>2020-06-12T08:43:54Z</time>
      </trkpt>
      <trkpt lat="45.73836" lon="5.82658">
        <ele>895</ele>
        <time>2020-06-12T08:44:05Z</time>
      </trkpt>
      <trkpt lat="45.73827" lon="5.82609">
        <ele>906</ele>
        <time>2020-06-12T08:44:52Z</time>
      </trkpt>
      <trkpt lat="45.73829" lon="5.82565">
        <ele>913</ele>
        <time>2020-06-12T08:45:33Z</time>
      </trkpt>
      <trkpt lat="45.73816" lon="5.82567">
        <ele>916</ele>
        <time>2020-06-12T08:45:50Z</time>
      </trkpt>
      <trkpt lat="45.7381" lon="5.82569">
        <ele>917</ele>
        <time>2020-06-12T08:45:59Z</time>
      </trkpt>
      <trkpt lat="45.73806" lon="5.82575">
        <ele>917</ele>
        <time>2020-06-12T08:46:06Z</time>
      </trkpt>
      <trkpt lat="45.73803" lon="5.82589">
        <ele>914</ele>
        <time>2020-06-12T08:46:20Z</time>
      </trkpt>
      <trkpt lat="45.73788" lon="5.82596">
        <ele>916</ele>
        <time>2020-06-12T08:46:41Z</time>
      </trkpt>
      <trkpt lat="45.73752" lon="5.82609">
        <ele>921</ele>
        <time>2020-06-12T08:47:30Z</time>
      </trkpt>
      <trkpt lat="45.73736" lon="5.82604">
        <ele>930</ele>
        <time>2020-06-12T08:47:52Z</time>
      </trkpt>
      <trkpt lat="45.73728" lon="5.82607">
        <ele>933</ele>
        <time>2020-06-12T08:48:03Z</time>
      </trkpt>
      <trkpt lat="45.73707" lon="5.82622">
        <ele>940</ele>
        <time>2020-06-12T08:48:35Z</time>
      </trkpt>
      <trkpt lat="45.73692" lon="5.82642">
        <ele>942</ele>
        <time>2020-06-12T08:49:02Z</time>
      </trkpt>
      <trkpt lat="45.73675" lon="5.82655">
        <ele>946</ele>
        <time>2020-06-12T08:49:28Z</time>
      </trkpt>
      <trkpt lat="45.73655" lon="5.82664">
        <ele>953</ele>
        <time>2020-06-12T08:49:56Z</time>
      </trkpt>
      <trkpt lat="45.73629" lon="5.82683">
        <ele>962</ele>
        <time>2020-06-12T08:50:35Z</time>
      </trkpt>
      <trkpt lat="45.73629" lon="5.82674">
        <ele>964</ele>
        <time>2020-06-12T08:50:43Z</time>
      </trkpt>
      <trkpt lat="45.73618" lon="5.82682">
        <ele>968</ele>
        <time>2020-06-12T08:51:00Z</time>
      </trkpt>
      <trkpt lat="45.73607" lon="5.82705">
        <ele>969</ele>
        <time>2020-06-12T08:51:25Z</time>
      </trkpt>
      <trkpt lat="45.73598" lon="5.82708">
        <ele>973</ele>
        <time>2020-06-12T08:51:38Z</time>
      </trkpt>
      <trkpt lat="45.73593" lon="5.82699">
        <ele>978</ele>
        <time>2020-06-12T08:51:49Z</time>
      </trkpt>
      <trkpt lat="45.73567" lon="5.82716">
        <ele>986</ele>
        <time>2020-06-12T08:52:27Z</time>
      </trkpt>
      <trkpt lat="45.7356" lon="5.82717">
        <ele>988</ele>
        <time>2020-06-12T08:52:36Z</time>
      </trkpt>
      <trkpt lat="45.73532" lon="5.82714">
        <ele>999</ele>
        <time>2020-06-12T08:53:14Z</time>
      </trkpt>
      <trkpt lat="45.7351" lon="5.82686">
        <ele>1012</ele>
        <time>2020-06-12T08:53:53Z</time>
      </trkpt>
      <trkpt lat="45.73467" lon="5.82686">
        <ele>1025</ele>
        <time>2020-06-12T08:54:50Z</time>
      </trkpt>
      <trkpt lat="45.73442" lon="5.82673">
        <ele>1034</ele>
        <time>2020-06-12T08:55:26Z</time>
      </trkpt>
      <trkpt lat="45.73403" lon="5.82668">
        <ele>1045</ele>
        <time>2020-06-12T08:56:18Z</time>
      </trkpt>
      <trkpt lat="45.73396" lon="5.82658">
        <ele>1049</ele>
        <time>2020-06-12T08:56:31Z</time>
      </trkpt>
      <trkpt lat="45.73377" lon="5.82657">
        <ele>1054</ele>
        <time>2020-06-12T08:56:56Z</time>
      </trkpt>
      <trkpt lat="45.73362" lon="5.82616">
        <ele>1065</ele>
        <time>2020-06-12T08:57:40Z</time>
      </trkpt>
      <trkpt lat="45.73335" lon="5.82615">
        <ele>1072</ele>
        <time>2020-06-12T08:58:16Z</time>
      </trkpt>
      <trkpt lat="45.73248" lon="5.82626">
        <ele>1094</ele>
        <time>2020-06-12T09:00:12Z</time>
      </trkpt>
      <trkpt lat="45.73204" lon="5.82623">
        <ele>1107</ele>
        <time>2020-06-12T09:01:11Z</time>
      </trkpt>
      <trkpt lat="45.73177" lon="5.82625">
        <ele>1114</ele>
        <time>2020-06-12T09:01:47Z</time>
      </trkpt>
      <trkpt lat="45.73149" lon="5.82618">
        <ele>1116</ele>
        <time>2020-06-12T09:02:25Z</time>
      </trkpt>
      <trkpt lat="45.73131" lon="5.8261">
        <ele>1116</ele>
        <time>2020-06-12T09:02:50Z</time>
      </trkpt>
      <trkpt lat="45.73147" lon="5.82598">
        <ele>1119</ele>
        <time>2020-06-12T09:03:14Z</time>
      </trkpt>
      <trkpt lat="45.73154" lon="5.82567">
        <ele>1124</ele>
        <time>2020-06-12T09:03:45Z</time>
      </trkpt>
      <trkpt lat="45.73157" lon="5.82516">
        <ele>1132</ele>
        <time>2020-06-12T09:04:32Z</time>
      </trkpt>
      <trkpt lat="45.73157" lon="5.8243">
        <ele>1142</ele>
        <time>2020-06-12T09:05:52Z</time>
      </trkpt>
      <trkpt lat="45.73154" lon="5.82413">
        <ele>1142</ele>
        <time>2020-06-12T09:06:09Z</time>
      </trkpt>
      <trkpt lat="45.73176" lon="5.82388">
        <ele>1145</ele>
        <time>2020-06-12T09:06:46Z</time>
      </trkpt>
      <trkpt lat="45.73186" lon="5.8238">
        <ele>1144</ele>
        <time>2020-06-12T09:07:01Z</time>
      </trkpt>
      <trkpt lat="45.73186" lon="5.8237">
        <ele>1144</ele>
        <time>2020-06-12T09:07:11Z</time>
      </trkpt>
      <trkpt lat="45.73186" lon="5.82379">
        <ele>1144</ele>
        <time>2020-06-12T09:07:19Z</time>
      </trkpt>
      <trkpt lat="45.73154" lon="5.82412">
        <ele>1142</ele>
        <time>2020-06-12T09:08:12Z</time>
      </trkpt>
      <trkpt lat="45.73138" lon="5.8241">
        <ele>1136</ele>
        <time>2020-06-12T09:08:33Z</time>
      </trkpt>
      <trkpt lat="45.7313" lon="5.8239">
        <ele>1132</ele>
        <time>2020-06-12T09:08:55Z</time>
      </trkpt>
      <trkpt lat="45.73127" lon="5.82361">
        <ele>1128</ele>
        <time>2020-06-12T09:09:22Z</time>
      </trkpt>
      <trkpt lat="45.73121" lon="5.82345">
        <ele>1124</ele>
        <time>2020-06-12T09:09:39Z</time>
      </trkpt>
      <trkpt lat="45.73113" lon="5.8234">
        <ele>1119</ele>
        <time>2020-06-12T09:09:51Z</time>
      </trkpt>
      <trkpt lat="45.73109" lon="5.82319">
        <ele>1111</ele>
        <time>2020-06-12T09:10:11Z</time>
      </trkpt>
      <trkpt lat="45.73106" lon="5.82318">
        <ele>1109</ele>
        <time>2020-06-12T09:10:15Z</time>
      </trkpt>
      <trkpt lat="45.73103" lon="5.82307">
        <ele>1103</ele>
        <time>2020-06-12T09:10:26Z</time>
      </trkpt>
      <trkpt lat="45.73105" lon="5.82293">
        <ele>1099</ele>
        <time>2020-06-12T09:10:39Z</time>
      </trkpt>
      <trkpt lat="45.73098" lon="5.82304">
        <ele>1099</ele>
        <time>2020-06-12T09:10:53Z</time>
      </trkpt>
      <trkpt lat="45.73096" lon="5.82329">
        <ele>1108</ele>
        <time>2020-06-12T09:11:17Z</time>
      </trkpt>
      <trkpt lat="45.73089" lon="5.82326">
        <ele>1103</ele>
        <time>2020-06-12T09:11:26Z</time>
      </trkpt>
      <trkpt lat="45.73093" lon="5.82316">
        <ele>1101</ele>
        <time>2020-06-12T09:11:37Z</time>
      </trkpt>
      <trkpt lat="45.73109" lon="5.82319">
        <ele>1111</ele>
        <time>2020-06-12T09:11:59Z</time>
      </trkpt>
      <trkpt lat="45.73109" lon="5.82328">
        <ele>1114</ele>
        <time>2020-06-12T09:12:07Z</time>
      </trkpt>
      <trkpt lat="45.73113" lon="5.82339">
        <ele>1119</ele>
        <time>2020-06-12T09:12:19Z</time>
      </trkpt>
      <trkpt lat="45.73121" lon="5.82346">
        <ele>1124</ele>
        <time>2020-06-12T09:12:31Z</time>
      </trkpt>
      <trkpt lat="45.73127" lon="5.82361">
        <ele>1128</ele>
        <time>2020-06-12T09:12:47Z</time>
      </trkpt>
      <trkpt lat="45.7313" lon="5.82389">
        <ele>1131</ele>
        <time>2020-06-12T09:13:14Z</time>
      </trkpt>
      <trkpt lat="45.73138" lon="5.8241">
        <ele>1136</ele>
        <time>2020-06-12T09:13:36Z</time>
      </trkpt>
      <trkpt lat="45.73156" lon="5.82421">
        <ele>1143</ele>
        <time>2020-06-12T09:14:02Z</time>
      </trkpt>
      <trkpt lat="45.73156" lon="5.82545">
        <ele>1127</ele>
        <time>2020-06-12T09:15:57Z</time>
      </trkpt>
      <trkpt lat="45.73152" lon="5.82582">
        <ele>1121</ele>
        <time>2020-06-12T09:16:32Z</time>
      </trkpt>
      <trkpt lat="45.73147" lon="5.82598">
        <ele>1119</ele>
        <time>2020-06-12T09:16:49Z</time>
      </trkpt>
      <trkpt lat="45.73097" lon="5.82637">
        <ele>1110</ele>
        <time>2020-06-12T09:18:05Z</time>
      </trkpt>
      <trkpt lat="45.73032" lon="5.82722">
        <ele>1078</ele>
        <time>2020-06-12T09:20:02Z</time>
      </trkpt>
      <trkpt lat="45.73021" lon="5.82761">
        <ele>1066</ele>
        <time>2020-06-12T09:20:41Z</time>
      </trkpt>
      <trkpt lat="45.73016" lon="5.82814">
        <ele>1056</ele>
        <time>2020-06-12T09:21:31Z</time>
      </trkpt>
      <trkpt lat="45.72995" lon="5.82829">
        <ele>1044</ele>
        <time>2020-06-12T09:22:02Z</time>
      </trkpt>
      <trkpt lat="45.72978" lon="5.82847">
        <ele>1035</ele>
        <time>2020-06-12T09:22:31Z</time>
      </trkpt>
      <trkpt lat="45.72974" lon="5.82864">
        <ele>1033</ele>
        <time>2020-06-12T09:22:47Z</time>
      </trkpt>
      <trkpt lat="45.72975" lon="5.8288">
        <ele>1034</ele>
        <time>2020-06-12T09:23:02Z</time>
      </trkpt>
      <trkpt lat="45.72972" lon="5.82902">
        <ele>1032</ele>
        <time>2020-06-12T09:23:23Z</time>
      </trkpt>
      <trkpt lat="45.72953" lon="5.82917">
        <ele>1024</ele>
        <time>2020-06-12T09:23:52Z</time>
      </trkpt>
      <trkpt lat="45.72907" lon="5.82971">
        <ele>1003</ele>
        <time>2020-06-12T09:25:11Z</time>
      </trkpt>
      <trkpt lat="45.72971" lon="5.83055">
        <ele>1023</ele>
        <time>2020-06-12T09:27:07Z</time>
      </trkpt>
      <trkpt lat="45.72984" lon="5.831">
        <ele>1020</ele>
        <time>2020-06-12T09:27:53Z</time>
      </trkpt>
      <trkpt lat="45.7299" lon="5.83113">
        <ele>1019</ele>
        <time>2020-06-12T09:28:07Z</time>
      </trkpt>
      <trkpt lat="45.73012" lon="5.8313">
        <ele>1018</ele>
        <time>2020-06-12T09:28:41Z</time>
      </trkpt>
      <trkpt lat="45.73032" lon="5.83134">
        <ele>1019</ele>
        <time>2020-06-12T09:29:07Z</time>
      </trkpt>
      <trkpt lat="45.73122" lon="5.83068">
        <ele>1036</ele>
        <time>2020-06-12T09:31:22Z</time>
      </trkpt>
      <trkpt lat="45.73136" lon="5.83052">
        <ele>1037</ele>
        <time>2020-06-12T09:31:46Z</time>
      </trkpt>
      <trkpt lat="45.73183" lon="5.82985">
        <ele>1045</ele>
        <time>2020-06-12T09:33:15Z</time>
      </trkpt>
      <trkpt lat="45.73219" lon="5.82899">
        <ele>1056</ele>
        <time>2020-06-12T09:34:48Z</time>
      </trkpt>
      <trkpt lat="45.73234" lon="5.82872">
        <ele>1058</ele>
        <time>2020-06-12T09:35:20Z</time>
      </trkpt>
      <trkpt lat="45.73278" lon="5.8281">
        <ele>1057</ele>
        <time>2020-06-12T09:36:43Z</time>
      </trkpt>
      <trkpt lat="45.73318" lon="5.82764">
        <ele>1054</ele>
        <time>2020-06-12T09:37:51Z</time>
      </trkpt>
      <trkpt lat="45.73321" lon="5.82754">
        <ele>1055</ele>
        <time>2020-06-12T09:38:01Z</time>
      </trkpt>
      <trkpt lat="45.7332" lon="5.82743">
        <ele>1057</ele>
        <time>2020-06-12T09:38:12Z</time>
      </trkpt>
      <trkpt lat="45.73307" lon="5.82693">
        <ele>1068</ele>
        <time>2020-06-12T09:39:01Z</time>
      </trkpt>
      <trkpt lat="45.73307" lon="5.82666">
        <ele>1072</ele>
        <time>2020-06-12T09:39:26Z</time>
      </trkpt>
      <trkpt lat="45.7333" lon="5.82636">
        <ele>1070</ele>
        <time>2020-06-12T09:40:08Z</time>
      </trkpt>
      <trkpt lat="45.73335" lon="5.82614">
        <ele>1072</ele>
        <time>2020-06-12T09:40:29Z</time>
      </trkpt>
      <trkpt lat="45.73362" lon="5.82615">
        <ele>1065</ele>
        <time>2020-06-12T09:41:06Z</time>
      </trkpt>
      <trkpt lat="45.73377" lon="5.82657">
        <ele>1054</ele>
        <time>2020-06-12T09:41:49Z</time>
      </trkpt>
      <trkpt lat="45.73396" lon="5.82657">
        <ele>1049</ele>
        <time>2020-06-12T09:42:15Z</time>
      </trkpt>
      <trkpt lat="45.73403" lon="5.82668">
        <ele>1045</ele>
        <time>2020-06-12T09:42:29Z</time>
      </trkpt>
      <trkpt lat="45.73442" lon="5.82673">
        <ele>1034</ele>
        <time>2020-06-12T09:43:21Z</time>
      </trkpt>
      <trkpt lat="45.73467" lon="5.82686">
        <ele>1025</ele>
        <time>2020-06-12T09:43:56Z</time>
      </trkpt>
      <trkpt lat="45.7351" lon="5.82686">
        <ele>1012</ele>
        <time>2020-06-12T09:44:54Z</time>
      </trkpt>
      <trkpt lat="45.73532" lon="5.82715">
        <ele>999</ele>
        <time>2020-06-12T09:45:34Z</time>
      </trkpt>
      <trkpt lat="45.73567" lon="5.82716">
        <ele>986</ele>
        <time>2020-06-12T09:46:20Z</time>
      </trkpt>
      <trkpt lat="45.73593" lon="5.82699">
        <ele>978</ele>
        <time>2020-06-12T09:46:59Z</time>
      </trkpt>
      <trkpt lat="45.73598" lon="5.82708">
        <ele>973</ele>
        <time>2020-06-12T09:47:09Z</time>
      </trkpt>
      <trkpt lat="45.73607" lon="5.82706">
        <ele>969</ele>
        <time>2020-06-12T09:47:21Z</time>
      </trkpt>
      <trkpt lat="45.73618" lon="5.82682">
        <ele>968</ele>
        <time>2020-06-12T09:47:48Z</time>
      </trkpt>
      <trkpt lat="45.73629" lon="5.82674">
        <ele>964</ele>
        <time>2020-06-12T09:48:05Z</time>
      </trkpt>
      <trkpt lat="45.73629" lon="5.82683">
        <ele>962</ele>
        <time>2020-06-12T09:48:13Z</time>
      </trkpt>
      <trkpt lat="45.73655" lon="5.82664">
        <ele>953</ele>
        <time>2020-06-12T09:48:52Z</time>
      </trkpt>
      <trkpt lat="45.73675" lon="5.82655">
        <ele>946</ele>
        <time>2020-06-12T09:49:20Z</time>
      </trkpt>
      <trkpt lat="45.73692" lon="5.82642">
        <ele>942</ele>
        <time>2020-06-12T09:49:46Z</time>
      </trkpt>
      <trkpt lat="45.73707" lon="5.82621">
        <ele>940</ele>
        <time>2020-06-12T09:50:14Z</time>
      </trkpt>
      <trkpt lat="45.73728" lon="5.82606">
        <ele>934</ele>
        <time>2020-06-12T09:50:45Z</time>
      </trkpt>
      <trkpt lat="45.73737" lon="5.82604">
        <ele>929</ele>
        <time>2020-06-12T09:50:57Z</time>
      </trkpt>
      <trkpt lat="45.73751" lon="5.82609">
        <ele>922</ele>
        <time>2020-06-12T09:51:16Z</time>
      </trkpt>
      <trkpt lat="45.73772" lon="5.82603">
        <ele>918</ele>
        <time>2020-06-12T09:51:45Z</time>
      </trkpt>
      <trkpt lat="45.73803" lon="5.82589">
        <ele>914</ele>
        <time>2020-06-12T09:52:28Z</time>
      </trkpt>
      <trkpt lat="45.7381" lon="5.82569">
        <ele>917</ele>
        <time>2020-06-12T09:52:49Z</time>
      </trkpt>
      <trkpt lat="45.73829" lon="5.82566">
        <ele>913</ele>
        <time>2020-06-12T09:53:15Z</time>
      </trkpt>
      <trkpt lat="45.73841" lon="5.82559">
        <ele>912</ele>
        <time>2020-06-12T09:53:32Z</time>
      </trkpt>
      <trkpt lat="45.73851" lon="5.82546">
        <ele>912</ele>
        <time>2020-06-12T09:53:50Z</time>
      </trkpt>
      <trkpt lat="45.7386" lon="5.82528">
        <ele>914</ele>
        <time>2020-06-12T09:54:11Z</time>
      </trkpt>
      <trkpt lat="45.73893" lon="5.82403">
        <ele>931</ele>
        <time>2020-06-12T09:56:15Z</time>
      </trkpt>
      <trkpt lat="45.73893" lon="5.82374">
        <ele>935</ele>
        <time>2020-06-12T09:56:42Z</time>
      </trkpt>
      <trkpt lat="45.73897" lon="5.82328">
        <ele>941</ele>
        <time>2020-06-12T09:57:25Z</time>
      </trkpt>
      <trkpt lat="45.73896" lon="5.82287">
        <ele>946</ele>
        <time>2020-06-12T09:58:03Z</time>
      </trkpt>
      <trkpt lat="45.73909" lon="5.82233">
        <ele>949</ele>
        <time>2020-06-12T09:58:57Z</time>
      </trkpt>
      <trkpt lat="45.73925" lon="5.82199">
        <ele>947</ele>
        <time>2020-06-12T09:59:35Z</time>
      </trkpt>
      <trkpt lat="45.73973" lon="5.82116">
        <ele>937</ele>
        <time>2020-06-12T10:01:15Z</time>
      </trkpt>
      <trkpt lat="45.73954" lon="5.82146">
        <ele>942</ele>
        <time>2020-06-12T10:01:53Z</time>
      </trkpt>
      <trkpt lat="45.73962" lon="5.82153">
        <ele>938</ele>
        <time>2020-06-12T10:02:05Z</time>
      </trkpt>
      <trkpt lat="45.73963" lon="5.8217">
        <ele>935</ele>
        <time>2020-06-12T10:02:21Z</time>
      </trkpt>
      <trkpt lat="45.7397" lon="5.82178">
        <ele>932</ele>
        <time>2020-06-12T10:02:33Z</time>
      </trkpt>
      <trkpt lat="45.73972" lon="5.82193">
        <ele>930</ele>
        <time>2020-06-12T10:02:48Z</time>
      </trkpt>
      <trkpt lat="45.73981" lon="5.82188">
        <ele>927</ele>
        <time>2020-06-12T10:03:00Z</time>
      </trkpt>
      <trkpt lat="45.73995" lon="5.82202">
        <ele>920</ele>
        <time>2020-06-12T10:03:23Z</time>
      </trkpt>
      <trkpt lat="45.74008" lon="5.82198">
        <ele>914</ele>
        <time>2020-06-12T10:03:41Z</time>
      </trkpt>
      <trkpt lat="45.74014" lon="5.82179">
        <ele>912</ele>
        <time>2020-06-12T10:04:00Z</time>
      </trkpt>
      <trkpt lat="45.74024" lon="5.8216">
        <ele>907</ele>
        <time>2020-06-12T10:04:23Z</time>
      </trkpt>
      <trkpt lat="45.74031" lon="5.82172">
        <ele>903</ele>
        <time>2020-06-12T10:04:37Z</time>
      </trkpt>
      <trkpt lat="45.74048" lon="5.82176">
        <ele>893</ele>
        <time>2020-06-12T10:05:00Z</time>
      </trkpt>
      <trkpt lat="45.7406" lon="5.82152">
        <ele>885</ele>
        <time>2020-06-12T10:05:28Z</time>
      </trkpt>
      <trkpt lat="45.74073" lon="5.8215">
        <ele>877</ele>
        <time>2020-06-12T10:05:45Z</time>
      </trkpt>
      <trkpt lat="45.74084" lon="5.82101">
        <ele>865</ele>
        <time>2020-06-12T10:06:33Z</time>
      </trkpt>
      <trkpt lat="45.74088" lon="5.82056">
        <ele>859</ele>
        <time>2020-06-12T10:07:15Z</time>
      </trkpt>
      <trkpt lat="45.74088" lon="5.82013">
        <ele>854</ele>
        <time>2020-06-12T10:07:55Z</time>
      </trkpt>
      <trkpt lat="45.74105" lon="5.81964">
        <ele>848</ele>
        <time>2020-06-12T10:08:46Z</time>
      </trkpt>
      <trkpt lat="45.7412" lon="5.81857">
        <ele>847</ele>
        <time>2020-06-12T10:10:28Z</time>
      </trkpt>
      <trkpt lat="45.74129" lon="5.81851">
        <ele>842</ele>
        <time>2020-06-12T10:10:41Z</time>
      </trkpt>
      <trkpt lat="45.74154" lon="5.81847">
        <ele>828</ele>
        <time>2020-06-12T10:11:15Z</time>
      </trkpt>
      <trkpt lat="45.74168" lon="5.8185">
        <ele>820</ele>
        <time>2020-06-12T10:11:34Z</time>
      </trkpt>
      <trkpt lat="45.7414" lon="5.81923">
        <ele>831</ele>
        <time>2020-06-12T10:12:51Z</time>
      </trkpt>
      <trkpt lat="45.74148" lon="5.81948">
        <ele>825</ele>
        <time>2020-06-12T10:13:17Z</time>
      </trkpt>
      <trkpt lat="45.74156" lon="5.81964">
        <ele>820</ele>
        <time>2020-06-12T10:13:35Z</time>
      </trkpt>
      <trkpt lat="45.74166" lon="5.81972">
        <ele>814</ele>
        <time>2020-06-12T10:13:50Z</time>
      </trkpt>
      <trkpt lat="45.74185" lon="5.81978">
        <ele>810</ele>
        <time>2020-06-12T10:14:16Z</time>
      </trkpt>
      <trkpt lat="45.74211" lon="5.8198">
        <ele>803</ele>
        <time>2020-06-12T10:14:51Z</time>
      </trkpt>
      <trkpt lat="45.7423" lon="5.81974">
        <ele>799</ele>
        <time>2020-06-12T10:15:17Z</time>
      </trkpt>
      <trkpt lat="45.74269" lon="5.81956">
        <ele>794</ele>
        <time>2020-06-12T10:16:12Z</time>
      </trkpt>
      <trkpt lat="45.7428" lon="5.81953">
        <ele>793</ele>
        <time>2020-06-12T10:16:27Z</time>
      </trkpt>
      <trkpt lat="45.74289" lon="5.81957">
        <ele>791</ele>
        <time>2020-06-12T10:16:39Z</time>
      </trkpt>
      <trkpt lat="45.74309" lon="5.81978">
        <ele>788</ele>
        <time>2020-06-12T10:17:12Z</time>
      </trkpt>
      <trkpt lat="45.7434" lon="5.82029">
        <ele>782</ele>
        <time>2020-06-12T10:18:15Z</time>
      </trkpt>
      <trkpt lat="45.74342" lon="5.82076">
        <ele>779</ele>
        <time>2020-06-12T10:18:59Z</time>
      </trkpt>
      <trkpt lat="45.74345" lon="5.82092">
        <ele>778</ele>
        <time>2020-06-12T10:19:15Z</time>
      </trkpt>
      <trkpt lat="45.74355" lon="5.82117">
        <ele>776</ele>
        <time>2020-06-12T10:19:41Z</time>
      </trkpt>
      <trkpt lat="45.74366" lon="5.82128">
        <ele>774</ele>
        <time>2020-06-12T10:19:59Z</time>
      </trkpt>
      <trkpt lat="45.74391" lon="5.82134">
        <ele>772</ele>
        <time>2020-06-12T10:20:33Z</time>
      </trkpt>
      <trkpt lat="45.7441" lon="5.82156">
        <ele>767</ele>
        <time>2020-06-12T10:21:06Z</time>
      </trkpt>
      <trkpt lat="45.74418" lon="5.82172">
        <ele>764</ele>
        <time>2020-06-12T10:21:24Z</time>
      </trkpt>
      <trkpt lat="45.74405" lon="5.82205">
        <ele>761</ele>
        <time>2020-06-12T10:21:59Z</time>
      </trkpt>
      <trkpt lat="45.74393" lon="5.82268">
        <ele>755</ele>
        <time>2020-06-12T10:23:00Z</time>
      </trkpt>
      <trkpt lat="45.74389" lon="5.82302">
        <ele>751</ele>
        <time>2020-06-12T10:23:32Z</time>
      </trkpt>
      <trkpt lat="45.74382" lon="5.82315">
        <ele>751</ele>
        <time>2020-06-12T10:23:48Z</time>
      </trkpt>
      <trkpt lat="45.74374" lon="5.82324">
        <ele>752</ele>
        <time>2020-06-12T10:24:01Z</time>
      </trkpt>
      <trkpt lat="45.74368" lon="5.82337">
        <ele>752</ele>
        <time>2020-06-12T10:24:16Z</time>
      </trkpt>
      <trkpt lat="45.74367" lon="5.82369">
        <ele>749</ele>
        <time>2020-06-12T10:24:46Z</time>
      </trkpt>
      <trkpt lat="45.7437" lon="5.82455">
        <ele>743</ele>
        <time>2020-06-12T10:26:06Z</time>
      </trkpt>
      <trkpt lat="45.74378" lon="5.82491">
        <ele>740</ele>
        <time>2020-06-12T10:26:41Z</time>
      </trkpt>
      <trkpt lat="45.74384" lon="5.82504">
        <ele>738</ele>
        <time>2020-06-12T10:26:55Z</time>
      </trkpt>
      <trkpt lat="45.74386" lon="5.82515">
        <ele>738</ele>
        <time>2020-06-12T10:27:06Z</time>
      </trkpt>
      <trkpt lat="45.74378" lon="5.82545">
        <ele>740</ele>
        <time>2020-06-12T10:27:36Z</time>
      </trkpt>
      <trkpt lat="45.74378" lon="5.82562">
        <ele>740</ele>
        <time>2020-06-12T10:27:52Z</time>
      </trkpt>
      <trkpt lat="45.74391" lon="5.82581">
        <ele>737</ele>
        <time>2020-06-12T10:28:17Z</time>
      </trkpt>
      <trkpt lat="45.74417" lon="5.82608">
        <ele>729</ele>
        <time>2020-06-12T10:28:59Z</time>
      </trkpt>
      <trkpt lat="45.74429" lon="5.82633">
        <ele>730</ele>
        <time>2020-06-12T10:29:28Z</time>
      </trkpt>
      <trkpt lat="45.74452" lon="5.82665">
        <ele>731</ele>
        <time>2020-06-12T10:30:10Z</time>
      </trkpt>
      <trkpt lat="45.74494" lon="5.82702">
        <ele>733</ele>
        <time>2020-06-12T10:31:16Z</time>
      </trkpt>
      <trkpt lat="45.7454" lon="5.82768">
        <ele>739</ele>
        <time>2020-06-12T10:32:43Z</time>
      </trkpt>
      <trkpt lat="45.74546" lon="5.82781">
        <ele>739</ele>
        <time>2020-06-12T10:32:58Z</time>
      </trkpt>
      <trkpt lat="45.74555" lon="5.82787">
        <ele>740</ele>
        <time>2020-06-12T10:33:11Z</time>
      </trkpt>
      <trkpt lat="45.74587" lon="5.82788">
        <ele>744</ele>
        <time>2020-06-12T10:33:54Z</time>
      </trkpt>
      <trkpt lat="45.74598" lon="5.82776">
        <ele>746</ele>
        <time>2020-06-12T10:34:12Z</time>
      </trkpt>
      <trkpt lat="45.74602" lon="5.82768">
        <ele>747</ele>
        <time>2020-06-12T10:34:21Z</time>
      </trkpt>
      <trkpt lat="45.74644" lon="5.82747">
        <ele>750</ele>
        <time>2020-06-12T10:35:21Z</time>
      </trkpt>
      <trkpt lat="45.74666" lon="5.8274">
        <ele>752</ele>
        <time>2020-06-12T10:35:51Z</time>
      </trkpt>
      <trkpt lat="45.74674" lon="5.82742">
        <ele>751</ele>
        <time>2020-06-12T10:36:01Z</time>
      </trkpt>
      <trkpt lat="45.74681" lon="5.82747">
        <ele>750</ele>
        <time>2020-06-12T10:36:12Z</time>
      </trkpt>
      <trkpt lat="45.74689" lon="5.82757">
        <ele>747</ele>
        <time>2020-06-12T10:36:26Z</time>
      </trkpt>
      <trkpt lat="45.74706" lon="5.82797">
        <ele>736</ele>
        <time>2020-06-12T10:37:10Z</time>
      </trkpt>
      <trkpt lat="45.74713" lon="5.82801">
        <ele>735</ele>
        <time>2020-06-12T10:37:20Z</time>
      </trkpt>
      <trkpt lat="45.7473" lon="5.82794">
        <ele>734</ele>
        <time>2020-06-12T10:37:43Z</time>
      </trkpt>
      <trkpt lat="45.74759" lon="5.82765">
        <ele>740</ele>
        <time>2020-06-12T10:38:30Z</time>
      </trkpt>
      <trkpt lat="45.74769" lon="5.82761">
        <ele>740</ele>
        <time>2020-06-12T10:38:44Z</time>
      </trkpt>
      <trkpt lat="45.74778" lon="5.82764">
        <ele>739</ele>
        <time>2020-06-12T10:38:57Z</time>
      </trkpt>
      <trkpt lat="45.74785" lon="5.82771">
        <ele>737</ele>
        <time>2020-06-12T10:39:08Z</time>
      </trkpt>
      <trkpt lat="45.74791" lon="5.82782">
        <ele>734</ele>
        <time>2020-06-12T10:39:21Z</time>
      </trkpt>
      <trkpt lat="45.74805" lon="5.82838">
        <ele>719</ele>
        <time>2020-06-12T10:40:16Z</time>
      </trkpt>
      <trkpt lat="45.74811" lon="5.82842">
        <ele>717</ele>
        <time>2020-06-12T10:40:25Z</time>
      </trkpt>
      <trkpt lat="45.74857" lon="5.8281">
        <ele>721</ele>
        <time>2020-06-12T10:41:34Z</time>
      </trkpt>
      <trkpt lat="45.74899" lon="5.82773">
        <ele>724</ele>
        <time>2020-06-12T10:42:39Z</time>
      </trkpt>
      <trkpt lat="45.74972" lon="5.82694">
        <ele>724</ele>
        <time>2020-06-12T10:44:41Z</time>
      </trkpt>
      <trkpt lat="45.74985" lon="5.82675">
        <ele>724</ele>
        <time>2020-06-12T10:45:06Z</time>
      </trkpt>
      <trkpt lat="45.7503" lon="5.82627">
        <ele>717</ele>
        <time>2020-06-12T10:46:21Z</time>
      </trkpt>
      <trkpt lat="45.75104" lon="5.82564">
        <ele>713</ele>
        <time>2020-06-12T10:48:16Z</time>
      </trkpt>
      <trkpt lat="45.75116" lon="5.82546">
        <ele>714</ele>
        <time>2020-06-12T10:48:39Z</time>
      </trkpt>
      <trkpt lat="45.75133" lon="5.82505">
        <ele>719</ele>
        <time>2020-06-12T10:49:23Z</time>
      </trkpt>
      <trkpt lat="45.7514" lon="5.82498">
        <ele>720</ele>
        <time>2020-06-12T10:49:35Z</time>
      </trkpt>
      <trkpt lat="45.75188" lon="5.82481">
        <ele>720</ele>
        <time>2020-06-12T10:50:41Z</time>
      </trkpt>
      <trkpt lat="45.75236" lon="5.82471">
        <ele>719</ele>
        <time>2020-06-12T10:51:46Z</time>
      </trkpt>
      <trkpt lat="45.75259" lon="5.82462">
        <ele>719</ele>
        <time>2020-06-12T10:52:17Z</time>
      </trkpt>
      <trkpt lat="45.7527" lon="5.82451">
        <ele>721</ele>
        <time>2020-06-12T10:52:35Z</time>
      </trkpt>
      <trkpt lat="45.75283" lon="5.82431">
        <ele>723</ele>
        <time>2020-06-12T10:53:01Z</time>
      </trkpt>
      <trkpt lat="45.75309" lon="5.82399">
        <ele>726</ele>
        <time>2020-06-12T10:53:46Z</time>
      </trkpt>
      <trkpt lat="45.754" lon="5.82323">
        <ele>725</ele>
        <time>2020-06-12T10:56:07Z</time>
      </trkpt>
      <trkpt lat="45.75446" lon="5.8229">
        <ele>721</ele>
        <time>2020-06-12T10:57:16Z</time>
      </trkpt>
      <trkpt lat="45.75485" lon="5.82271">
        <ele>716</ele>
        <time>2020-06-12T10:58:11Z</time>
      </trkpt>
      <trkpt lat="45.75564" lon="5.82224">
        <ele>708</ele>
        <time>2020-06-12T11:00:05Z</time>
      </trkpt>
      <trkpt lat="45.7554" lon="5.82134">
        <ele>708</ele>
        <time>2020-06-12T11:01:35Z</time>
      </trkpt>
      <trkpt lat="45.75534" lon="5.82125">
        <ele>709</ele>
        <time>2020-06-12T11:01:46Z</time>
      </trkpt>
      <trkpt lat="45.75523" lon="5.82116">
        <ele>710</ele>
        <time>2020-06-12T11:02:03Z</time>
      </trkpt>
      <trkpt lat="45.75492" lon="5.82096">
        <ele>715</ele>
        <time>2020-06-12T11:02:48Z</time>
      </trkpt>
      <trkpt lat="45.75466" lon="5.82061">
        <ele>715</ele>
        <time>2020-06-12T11:03:36Z</time>
      </trkpt>
      <trkpt lat="45.75455" lon="5.82057">
        <ele>716</ele>
        <time>2020-06-12T11:03:51Z</time>
      </trkpt>
      <trkpt lat="45.75434" lon="5.82065">
        <ele>719</ele>
        <time>2020-06-12T11:04:20Z</time>
      </trkpt>
      <trkpt lat="45.75422" lon="5.82063">
        <ele>721</ele>
        <time>2020-06-12T11:04:36Z</time>
      </trkpt>
      <trkpt lat="45.75435" lon="5.82066">
        <ele>719</ele>
        <time>2020-06-12T11:04:54Z</time>
      </trkpt>
      <trkpt lat="45.75455" lon="5.82057">
        <ele>716</ele>
        <time>2020-06-12T11:05:22Z</time>
      </trkpt>
      <trkpt lat="45.75466" lon="5.82061">
        <ele>715</ele>
        <time>2020-06-12T11:05:37Z</time>
      </trkpt>
      <trkpt lat="45.75493" lon="5.82096">
        <ele>714</ele>
        <time>2020-06-12T11:06:25Z</time>
      </trkpt>
      <trkpt lat="45.75523" lon="5.82116">
        <ele>710</ele>
        <time>2020-06-12T11:07:10Z</time>
      </trkpt>
      <trkpt lat="45.75534" lon="5.82125">
        <ele>709</ele>
        <time>2020-06-12T11:07:27Z</time>
      </trkpt>
      <trkpt lat="45.7554" lon="5.82134">
        <ele>708</ele>
        <time>2020-06-12T11:07:38Z</time>
      </trkpt>
      <trkpt lat="45.75584" lon="5.82296">
        <ele>701</ele>
        <time>2020-06-12T11:10:20Z</time>
      </trkpt>
      <trkpt lat="45.75583" lon="5.8231">
        <ele>700</ele>
        <time>2020-06-12T11:10:33Z</time>
      </trkpt>
      <trkpt lat="45.75576" lon="5.82326">
        <ele>700</ele>
        <time>2020-06-12T11:10:51Z</time>
      </trkpt>
      <trkpt lat="45.75502" lon="5.82427">
        <ele>695</ele>
        <time>2020-06-12T11:13:07Z</time>
      </trkpt>
      <trkpt lat="45.75461" lon="5.82478">
        <ele>691</ele>
        <time>2020-06-12T11:14:19Z</time>
      </trkpt>
      <trkpt lat="45.75431" lon="5.82523">
        <ele>686</ele>
        <time>2020-06-12T11:15:17Z</time>
      </trkpt>
      <trkpt lat="45.75413" lon="5.82556">
        <ele>681</ele>
        <time>2020-06-12T11:15:56Z</time>
      </trkpt>
      <trkpt lat="45.75402" lon="5.8257">
        <ele>680</ele>
        <time>2020-06-12T11:16:16Z</time>
      </trkpt>
      <trkpt lat="45.75288" lon="5.82684">
        <ele>673</ele>
        <time>2020-06-12T11:19:22Z</time>
      </trkpt>
      <trkpt lat="45.75257" lon="5.8271">
        <ele>672</ele>
        <time>2020-06-12T11:20:10Z</time>
      </trkpt>
      <trkpt lat="45.75197" lon="5.82783">
        <ele>663</ele>
        <time>2020-06-12T11:21:55Z</time>
      </trkpt>
      <trkpt lat="45.75152" lon="5.8283">
        <ele>659</ele>
        <time>2020-06-12T11:23:09Z</time>
      </trkpt>
      <trkpt lat="45.75147" lon="5.82849">
        <ele>654</ele>
        <time>2020-06-12T11:23:28Z</time>
      </trkpt>
      <trkpt lat="45.75137" lon="5.82867">
        <ele>651</ele>
        <time>2020-06-12T11:23:49Z</time>
      </trkpt>
      <trkpt lat="45.75118" lon="5.82896">
        <ele>646</ele>
        <time>2020-06-12T11:24:26Z</time>
      </trkpt>
      <trkpt lat="45.75067" lon="5.82964">
        <ele>639</ele>
        <time>2020-06-12T11:25:59Z</time>
      </trkpt>
      <trkpt lat="45.7506" lon="5.82978">
        <ele>637</ele>
        <time>2020-06-12T11:26:15Z</time>
      </trkpt>
      <trkpt lat="45.75049" lon="5.83019">
        <ele>627</ele>
        <time>2020-06-12T11:26:56Z</time>
      </trkpt>
      <trkpt lat="45.75029" lon="5.83046">
        <ele>620</ele>
        <time>2020-06-12T11:27:33Z</time>
      </trkpt>
      <trkpt lat="45.75009" lon="5.83058">
        <ele>619</ele>
        <time>2020-06-12T11:28:02Z</time>
      </trkpt>
      <trkpt lat="45.7499" lon="5.83081">
        <ele>614</ele>
        <time>2020-06-12T11:28:35Z</time>
      </trkpt>
      <trkpt lat="45.74987" lon="5.83092">
        <ele>611</ele>
        <time>2020-06-12T11:28:46Z</time>
      </trkpt>
      <trkpt lat="45.74993" lon="5.8311">
        <ele>603</ele>
        <time>2020-06-12T11:29:04Z</time>
      </trkpt>
      <trkpt lat="45.74983" lon="5.83113">
        <ele>603</ele>
        <time>2020-06-12T11:29:18Z</time>
      </trkpt>
      <trkpt lat="45.74977" lon="5.83122">
        <ele>601</ele>
        <time>2020-06-12T11:29:30Z</time>
      </trkpt>
      <trkpt lat="45.74952" lon="5.83135">
        <ele>601</ele>
        <time>2020-06-12T11:30:05Z</time>
      </trkpt>
    </trkseg>
  </trk>
</gpx>